Time;durP1;ratioP1;P1;durP2;ratioP2;P2;SDS_P1;SDS_P2;PMS_P1;PMS_P2;Temp;Humidity;BMP_temperature;BMP_pressure;BME280_temperature;BME280_humidity;BME280_pressure;Samples;Min_cycle;Max_cycle;Signal;HPM_P1;HPM_P2
2022/08/06 00:00:33;;;;;;;2.00;1.35;;;28.90;77.70;;;;;;5032425;28;20029;-26
2022/08/06 00:02:59;;;;;;;2.50;1.50;;;28.90;77.50;;;;;;5032496;28;20032;-26
2022/08/06 00:05:26;;;;;;;2.17;1.52;;;28.90;77.40;;;;;;5032366;28;20017;-26
2022/08/06 00:07:51;;;;;;;2.05;1.45;;;28.90;77.40;;;;;;5032252;28;20033;-26
2022/08/06 00:10:19;;;;;;;2.58;1.40;;;28.90;77.30;;;;;;5032223;28;20029;-25
2022/08/06 00:12:46;;;;;;;2.25;1.27;;;28.90;77.20;;;;;;5032214;28;20548;-26
2022/08/06 00:15:12;;;;;;;2.05;1.20;;;28.90;77.00;;;;;;5032143;28;20391;-26
2022/08/06 00:17:38;;;;;;;2.00;1.38;;;28.90;77.10;;;;;;5032291;28;20388;-26
2022/08/06 00:20:05;;;;;;;1.83;1.27;;;28.80;77.00;;;;;;5032037;28;20025;-26
2022/08/06 00:22:31;;;;;;;3.13;1.30;;;28.80;76.80;;;;;;5032086;28;20058;-26
2022/08/06 00:24:57;;;;;;;2.70;1.20;;;28.80;76.70;;;;;;5032143;28;20072;-26
2022/08/06 00:27:23;;;;;;;1.80;1.17;;;28.80;76.60;;;;;;5032083;28;20029;-26
2022/08/06 00:29:49;;;;;;;1.33;1.20;;;28.80;76.60;;;;;;5031924;28;20025;-27
2022/08/06 00:32:15;;;;;;;1.23;1.10;;;28.80;76.50;;;;;;5032140;28;20471;-26
2022/08/06 00:34:41;;;;;;;3.20;1.10;;;28.80;76.40;;;;;;5031952;28;20029;-25
2022/08/06 00:37:06;;;;;;;2.92;1.20;;;28.80;76.30;;;;;;5031852;28;20087;-26
2022/08/06 00:39:32;;;;;;;2.35;1.10;;;28.80;76.20;;;;;;5031800;28;20047;-26
2022/08/06 00:41:58;;;;;;;3.15;1.30;;;28.80;76.80;;;;;;5031934;28;20017;-26
2022/08/06 00:44:24;;;;;;;1.63;1.00;;;28.80;76.10;;;;;;5031293;28;20080;-26
2022/08/06 00:46:50;;;;;;;2.65;1.40;;;28.80;76.10;;;;;;5031453;28;20471;-26
2022/08/06 00:49:15;;;;;;;2.08;1.17;;;28.70;75.90;;;;;;5031618;28;20033;-27
2022/08/06 00:51:42;;;;;;;1.58;1.00;;;28.70;75.80;;;;;;5031763;28;20076;-26
2022/08/06 00:54:07;;;;;;;1.65;1.08;;;28.70;75.80;;;;;;5031765;28;20414;-26
2022/08/06 00:56:33;;;;;;;1.40;1.00;;;28.70;75.70;;;;;;5031743;28;20025;-26
2022/08/06 00:58:59;;;;;;;2.13;1.05;;;28.70;75.60;;;;;;5031605;28;20042;-26
2022/08/06 01:01:24;;;;;;;1.42;0.98;;;28.70;75.50;;;;;;5031766;28;20471;-26
2022/08/06 01:03:50;;;;;;;2.30;1.30;;;28.70;75.50;;;;;;5031644;28;20021;-26
2022/08/06 01:06:16;;;;;;;1.38;0.88;;;28.70;75.60;;;;;;5031615;28;20033;-26
2022/08/06 01:08:41;;;;;;;2.10;0.85;;;28.70;75.60;;;;;;5031500;28;20030;-26
2022/08/06 01:11:07;;;;;;;2.00;1.00;;;28.60;75.60;;;;;;5032066;28;20492;-26
2022/08/06 01:13:33;;;;;;;2.30;0.82;;;28.60;75.50;;;;;;5031639;28;20048;-26
2022/08/06 01:16:03;;;;;;;1.25;0.70;;;28.70;75.60;;;;;;5031599;28;20080;-27
2022/08/06 01:18:35;;;;;;;1.65;1.05;;;28.60;75.30;;;;;;5031466;28;20018;-26
2022/08/06 01:21:22;;;;;;;3.53;1.15;;;28.60;75.20;;;;;;5031624;28;20514;-27
2022/08/06 01:24:07;;;;;;;2.67;0.90;;;28.60;75.20;;;;;;5031568;28;20022;-26
2022/08/06 01:26:40;;;;;;;1.60;0.85;;;28.60;75.20;;;;;;5031576;28;20383;-26
2022/08/06 01:29:16;;;;;;;1.35;0.70;;;28.60;75.20;;;;;;5031198;28;20021;-26
2022/08/06 01:31:53;;;;;;;1.20;0.77;;;28.60;75.20;;;;;;5031492;28;20489;-26
2022/08/06 01:34:24;;;;;;;2.03;0.90;;;28.50;75.00;;;;;;5031559;28;20041;-26
2022/08/06 01:36:58;;;;;;;1.85;1.02;;;28.50;74.90;;;;;;5031410;28;20030;-26
2022/08/06 01:39:27;;;;;;;0.80;0.60;;;28.50;74.90;;;;;;5031156;28;20024;-26
2022/08/06 01:41:54;;;;;;;2.05;1.10;;;28.50;74.90;;;;;;5031402;28;20105;-26
2022/08/06 01:44:23;;;;;;;1.35;0.98;;;28.50;74.80;;;;;;5031195;28;20125;-27
2022/08/06 01:46:52;;;;;;;4.32;0.90;;;28.50;74.80;;;;;;5031506;28;20022;-26
2022/08/06 01:49:22;;;;;;;1.98;0.95;;;28.50;74.70;;;;;;5031095;28;20033;-27
2022/08/06 01:51:51;;;;;;;2.17;0.90;;;28.50;74.60;;;;;;5031282;28;20399;-26
2022/08/06 01:54:19;;;;;;;1.95;1.00;;;28.50;74.60;;;;;;5031120;28;20039;-26
2022/08/06 01:56:49;;;;;;;2.95;1.10;;;28.50;74.60;;;;;;5032893;28;20033;-26
2022/08/06 01:59:19;;;;;;;1.10;0.60;;;28.50;74.50;;;;;;5034687;28;20017;-26
2022/08/06 02:01:50;;;;;;;1.90;0.90;;;28.50;74.50;;;;;;5034737;28;20421;-26
2022/08/06 02:04:18;;;;;;;2.45;0.88;;;28.50;74.50;;;;;;5034722;28;20017;-27
2022/08/06 02:06:46;;;;;;;1.77;1.00;;;28.40;74.40;;;;;;5034572;28;20025;-26
2022/08/06 02:09:17;;;;;;;3.33;0.80;;;28.40;74.30;;;;;;5034480;28;20116;-26
2022/08/06 02:11:45;;;;;;;2.47;1.00;;;28.40;74.40;;;;;;5034641;28;20022;-27
2022/08/06 02:14:14;;;;;;;1.15;0.70;;;28.50;74.40;;;;;;5034486;28;20055;-26
2022/08/06 02:16:42;;;;;;;2.95;1.00;;;28.40;74.40;;;;;;5016903;28;20108;-26
2022/08/06 02:19:13;;;;;;;1.20;0.75;;;28.40;74.40;;;;;;5034092;28;20017;-26
2022/08/06 02:21:43;;;;;;;5.32;0.90;;;28.40;74.40;;;;;;5034503;28;20699;-26
2022/08/06 02:24:10;;;;;;;1.58;0.90;;;28.40;74.30;;;;;;5034321;28;20021;-26
2022/08/06 02:26:38;;;;;;;2.38;0.80;;;28.40;74.40;;;;;;5034358;28;20022;-26
2022/08/06 02:29:08;;;;;;;1.60;0.80;;;28.40;74.30;;;;;;5034053;28;20025;-26
2022/08/06 02:31:34;;;;;;;1.58;0.75;;;28.40;74.30;;;;;;5034077;28;20022;-26
2022/08/06 02:34:00;;;;;;;1.73;0.93;;;28.30;74.10;;;;;;5034084;28;20025;-26
2022/08/06 02:36:57;;;;;;;2.15;0.70;;;28.30;74.20;;;;;;5034246;28;20026;-26
2022/08/06 02:39:36;;;;;;;2.22;0.80;;;28.40;74.20;;;;;;5021580;28;20118;-26
2022/08/06 02:42:08;;;;;;;2.20;0.80;;;28.40;74.20;;;;;;5033961;28;20022;-26
2022/08/06 02:44:46;;;;;;;3.85;0.90;;;28.30;74.10;;;;;;5033936;28;20116;-26
2022/08/06 02:47:29;;;;;;;1.48;0.80;;;28.30;74.10;;;;;;5033883;28;20033;-26
2022/08/06 02:49:59;;;;;;;1.95;0.80;;;28.30;74.10;;;;;;5033725;28;20049;-26
2022/08/06 02:52:41;;;;;;;1.42;0.70;;;28.20;74.00;;;;;;5033679;28;20032;-26
2022/08/06 02:55:14;;;;;;;1.05;0.65;;;28.30;74.00;;;;;;5033661;28;20036;-26
2022/08/06 02:57:49;;;;;;;1.58;0.60;;;28.30;74.10;;;;;;5033759;28;20103;-27
2022/08/06 03:00:16;;;;;;;1.25;0.75;;;28.30;74.10;;;;;;5033458;28;20017;-26
2022/08/06 03:02:45;;;;;;;2.30;0.80;;;28.30;74.90;;;;;;5033581;28;20028;-26
2022/08/06 03:05:14;;;;;;;1.77;0.70;;;28.20;74.00;;;;;;5033499;28;20467;-26
2022/08/06 03:07:42;;;;;;;2.53;0.80;;;28.30;74.10;;;;;;5032828;28;20387;-26
2022/08/06 03:10:09;;;;;;;1.35;0.60;;;28.20;74.10;;;;;;5033105;28;20025;-26
2022/08/06 03:12:36;;;;;;;1.02;0.73;;;28.20;74.10;;;;;;5033463;28;20033;-26
2022/08/06 03:15:05;;;;;;;2.80;0.80;;;28.20;74.80;;;;;;5033304;28;20091;-26
2022/08/06 03:17:32;;;;;;;0.95;0.73;;;28.20;74.00;;;;;;5033008;28;20079;-26
2022/08/06 03:20:01;;;;;;;1.67;0.60;;;28.20;74.00;;;;;;5033136;28;20043;-26
2022/08/06 03:22:29;;;;;;;3.97;0.70;;;28.10;74.00;;;;;;5033220;28;20431;-26
2022/08/06 03:24:56;;;;;;;1.90;0.93;;;28.10;74.00;;;;;;5033134;28;20522;-26
2022/08/06 03:27:22;;;;;;;2.08;0.80;;;28.20;74.10;;;;;;5033130;28;20029;-26
2022/08/06 03:29:50;;;;;;;1.45;0.73;;;28.20;74.10;;;;;;5032844;28;20466;-26
2022/08/06 03:32:16;;;;;;;1.58;0.80;;;28.10;74.00;;;;;;5033044;28;20549;-27
2022/08/06 03:34:43;;;;;;;3.38;0.73;;;28.10;74.00;;;;;;5032987;28;20034;-26
2022/08/06 03:37:09;;;;;;;2.22;0.80;;;28.10;74.10;;;;;;5032935;28;20025;-26
2022/08/06 03:39:39;;;;;;;1.50;0.77;;;28.10;74.00;;;;;;5032781;28;20056;-26
2022/08/06 03:42:05;;;;;;;1.85;0.70;;;28.10;74.00;;;;;;5032912;28;20045;-26
2022/08/06 03:44:31;;;;;;;1.92;0.70;;;28.10;74.00;;;;;;5032487;28;20033;-26
2022/08/06 03:47:28;;;;;;;1.65;0.98;;;28.10;74.00;;;;;;5032788;28;20044;-26
2022/08/06 03:50:12;;;;;;;3.40;0.80;;;28.10;74.00;;;;;;5032569;28;20025;-26
2022/08/06 03:52:42;;;;;;;1.85;0.80;;;28.10;73.90;;;;;;5033018;28;20379;-26
2022/08/06 03:55:12;;;;;;;1.90;0.90;;;28.00;73.80;;;;;;5032526;28;20029;-26
2022/08/06 03:57:43;;;;;;;1.05;0.60;;;28.00;73.90;;;;;;5032587;28;20048;-26
2022/08/06 04:00:12;;;;;;;2.00;0.80;;;28.00;73.90;;;;;;5032401;28;20014;-26
2022/08/06 04:02:43;;;;;;;1.85;0.73;;;28.00;74.00;;;;;;5032527;28;20028;-26
2022/08/06 04:05:11;;;;;;;0.95;0.60;;;28.00;74.00;;;;;;5032421;28;20033;-26
2022/08/06 04:07:38;;;;;;;2.30;0.80;;;28.00;74.20;;;;;;5032638;28;20390;-26
2022/08/06 04:10:06;;;;;;;1.83;0.80;;;28.00;73.90;;;;;;5032259;28;20033;-26
2022/08/06 04:12:32;;;;;;;1.60;0.60;;;28.00;73.90;;;;;;5032498;28;20056;-26
2022/08/06 04:14:59;;;;;;;1.13;0.70;;;28.00;73.90;;;;;;5032225;28;20056;-26
2022/08/06 04:17:26;;;;;;;1.70;0.60;;;28.00;74.00;;;;;;5032191;28;20084;-26
2022/08/06 04:19:53;;;;;;;2.00;0.70;;;28.00;73.90;;;;;;5031770;28;20029;-26
2022/08/06 04:22:20;;;;;;;2.88;0.77;;;28.00;74.00;;;;;;5032182;28;20061;-27
2022/08/06 04:24:46;;;;;;;2.05;0.82;;;28.00;74.00;;;;;;5032132;28;20062;-26
2022/08/06 04:27:13;;;;;;;1.55;0.80;;;27.90;73.90;;;;;;5032158;28;20025;-26
2022/08/06 04:29:41;;;;;;;1.17;0.60;;;28.00;74.00;;;;;;5031867;28;20116;-26
2022/08/06 04:32:09;;;;;;;1.50;0.70;;;27.90;73.90;;;;;;5032146;28;20025;-26
2022/08/06 04:34:38;;;;;;;2.67;0.98;;;27.90;74.00;;;;;;5032436;28;20074;-26
2022/08/06 04:37:04;;;;;;;2.15;0.70;;;27.90;74.10;;;;;;5014235;28;20098;-27
2022/08/06 04:39:31;;;;;;;1.98;1.00;;;27.90;74.00;;;;;;5031779;28;20029;-26
2022/08/06 04:41:57;;;;;;;1.52;0.90;;;27.90;74.10;;;;;;5031983;28;20029;-26
2022/08/06 04:44:23;;;;;;;1.48;0.70;;;27.90;74.00;;;;;;5031950;28;20037;-26
2022/08/06 04:46:50;;;;;;;2.50;0.65;;;27.90;74.10;;;;;;5031915;28;20574;-26
2022/08/06 04:49:16;;;;;;;0.88;0.60;;;27.90;74.00;;;;;;5013815;28;20063;-26
2022/08/06 04:51:48;;;;;;;1.33;0.68;;;27.80;74.00;;;;;;5031847;28;20072;-27
2022/08/06 04:54:15;;;;;;;1.20;0.50;;;27.80;74.10;;;;;;5031770;28;20116;-27
2022/08/06 04:56:42;;;;;;;1.33;0.50;;;27.80;74.10;;;;;;5014184;28;20021;-26
2022/08/06 04:59:09;;;;;;;2.70;0.63;;;27.80;74.10;;;;;;5031595;28;20442;-26
2022/08/06 05:01:36;;;;;;;1.20;0.80;;;27.80;74.10;;;;;;5031670;28;20021;-26
2022/08/06 05:04:03;;;;;;;5.13;0.80;;;27.80;74.10;;;;;;5031699;28;20112;-26
2022/08/06 05:06:43;;;;;;;2.20;0.90;;;27.80;74.90;;;;;;5031979;28;20021;-26
2022/08/06 05:09:13;;;;;;;1.33;0.65;;;27.70;74.10;;;;;;5031557;28;20538;-27
2022/08/06 05:11:47;;;;;;;1.00;0.60;;;27.70;74.10;;;;;;5031723;28;20484;-26
2022/08/06 05:14:24;;;;;;;1.75;0.73;;;27.70;74.10;;;;;;5031479;28;20037;-26
2022/08/06 05:16:51;;;;;;;1.38;0.70;;;27.70;74.90;;;;;;5031781;28;20029;-26
2022/08/06 05:19:43;;;;;;;1.70;0.50;;;27.70;74.10;;;;;;5031928;28;20394;-27
2022/08/06 05:22:11;;;;;;;1.50;0.70;;;27.70;74.10;;;;;;5023806;28;20044;-26
2022/08/06 05:24:38;;;;;;;2.05;0.80;;;27.70;74.20;;;;;;5031555;28;20096;-26
2022/08/06 05:27:05;;;;;;;2.05;0.70;;;27.70;74.10;;;;;;5031588;28;20026;-26
2022/08/06 05:29:31;;;;;;;1.83;0.80;;;27.70;74.10;;;;;;5031287;28;20083;-26
2022/08/06 05:32:01;;;;;;;2.70;0.70;;;27.70;74.20;;;;;;5033239;28;20562;-26
2022/08/06 05:34:27;;;;;;;1.70;0.90;;;27.70;74.20;;;;;;5035278;28;20140;-26
2022/08/06 05:36:52;;;;;;;2.25;0.80;;;27.70;74.30;;;;;;5035150;28;20472;-27
2022/08/06 05:39:19;;;;;;;2.17;0.70;;;27.70;74.20;;;;;;5034898;28;20022;-27
2022/08/06 05:41:45;;;;;;;3.63;0.75;;;27.70;74.20;;;;;;5035326;28;20049;-26
2022/08/06 05:44:11;;;;;;;1.73;0.60;;;27.70;74.20;;;;;;5058147;22;20025;-25
2022/08/06 05:46:45;;;;;;;1.42;0.80;;;27.60;74.10;;;;;;5034667;28;20442;-26
2022/08/06 05:49:17;;;;;;;2.00;0.73;;;27.60;74.10;;;;;;5035127;28;20081;-25
2022/08/06 05:52:01;;;;;;;0.98;0.65;;;27.60;74.20;;;;;;5035417;28;20029;-25
2022/08/06 05:54:30;;;;;;;;;;;27.60;74.20;;;;;;5035804;28;20037;-25
2022/08/06 05:57:09;;;;;;;0.88;0.60;;;27.60;74.20;;;;;;5017516;28;19952;-25
2022/08/06 05:59:39;;;;;;;11.57;1.13;;;27.60;74.30;;;;;;5035340;28;20096;-25
2022/08/06 06:02:06;;;;;;;1.92;0.68;;;27.60;74.30;;;;;;5035890;28;20032;-25
2022/08/06 06:04:32;;;;;;;2.22;0.80;;;27.60;75.10;;;;;;5035370;28;20055;-25
2022/08/06 06:06:59;;;;;;;3.35;0.80;;;27.60;74.30;;;;;;5035264;28;20025;-25
2022/08/06 06:09:25;;;;;;;1.35;0.70;;;27.60;74.30;;;;;;5035566;28;20021;-25
2022/08/06 06:11:52;;;;;;;2.10;0.60;;;27.60;74.30;;;;;;5035526;28;20021;-25
2022/08/06 06:14:44;;;;;;;4.20;0.68;;;27.60;74.30;;;;;;5035227;28;20026;-25
2022/08/06 06:17:19;;;;;;;2.30;0.80;;;27.60;74.30;;;;;;5034921;28;20033;-25
2022/08/06 06:20:06;;;;;;;0.95;0.60;;;27.60;74.30;;;;;;5034848;28;20032;-25
2022/08/06 06:22:49;;;;;;;3.03;0.80;;;27.60;74.20;;;;;;5035141;28;20091;-25
2022/08/06 06:26:10;;;;;;;2.65;1.00;;;27.60;74.30;;;;;;5034478;28;20148;-25
2022/08/06 06:28:59;;;;;;;5.15;1.17;;;27.30;72.30;;;;;;5028698;28;20446;-25
2022/08/06 06:31:32;;;;;;;4.15;1.00;;;26.40;73.60;;;;;;5034320;28;20029;-25
2022/08/06 06:34:16;;;;;;;2.53;1.05;;;25.80;75.00;;;;;;5034150;28;20021;-25
2022/08/06 06:36:54;;;;;;;3.88;1.02;;;25.30;76.40;;;;;;5034096;28;20032;-25
2022/08/06 06:39:52;;;;;;;6.15;1.20;;;25.00;77.30;;;;;;5034709;28;20076;-24
2022/08/06 06:42:23;;;;;;;4.97;1.20;;;24.80;78.00;;;;;;5005827;28;20390;-24
2022/08/06 06:45:04;;;;;;;4.13;1.23;;;24.40;78.10;;;;;;5034159;28;20033;-24
2022/08/06 06:47:31;;;;;;;2.05;0.98;;;24.10;79.60;;;;;;5016398;28;20033;-24
2022/08/06 06:50:32;;;;;;;2.15;0.73;;;24.00;80.10;;;;;;5016094;28;20036;-24
2022/08/06 06:52:58;;;;;;;3.72;0.98;;;23.90;80.30;;;;;;5002112;28;20037;-24
2022/08/06 06:55:32;;;;;;;3.17;0.90;;;24.10;80.30;;;;;;5034093;28;20554;-24
2022/08/06 06:58:12;;;;;;;2.65;0.65;;;24.50;79.70;;;;;;5034259;28;20047;-24
2022/08/06 07:00:39;;;;;;;2.90;0.90;;;24.90;78.70;;;;;;5036540;28;20056;-24
2022/08/06 07:03:17;;;;;;;3.13;0.85;;;25.30;77.90;;;;;;5039047;28;20386;-24
2022/08/06 07:05:52;;;;;;;3.83;0.93;;;25.60;77.10;;;;;;5036029;28;20026;-24
2022/08/06 07:08:37;;;;;;;;;;;25.90;76.60;;;;;;5034448;28;20033;-24
2022/08/06 07:11:26;;;;;;;2.85;0.65;;;26.10;76.20;;;;;;5033510;28;19905;-24
2022/08/06 07:13:53;;;;;;;3.15;0.80;;;26.30;75.90;;;;;;5033819;28;20167;-24
2022/08/06 07:16:23;;;;;;;2.28;0.85;;;26.40;75.50;;;;;;5033547;28;20045;-24
2022/08/06 07:19:17;;;;;;;1.67;0.70;;;26.50;75.20;;;;;;5033619;28;20067;-25
2022/08/06 07:21:44;;;;;;;4.53;0.70;;;26.70;75.00;;;;;;5032057;28;20029;-25
2022/08/06 07:24:12;;;;;;;2.38;0.80;;;26.70;74.90;;;;;;5033357;28;20424;-25
2022/08/06 07:26:42;;;;;;;2.05;0.70;;;26.80;74.80;;;;;;5033602;28;20037;-25
2022/08/06 07:29:10;;;;;;;1.83;0.80;;;26.80;74.70;;;;;;5033336;28;20025;-25
2022/08/06 07:31:37;;;;;;;1.52;0.70;;;26.90;74.70;;;;;;5033458;28;20100;-24
2022/08/06 07:34:06;;;;;;;1.73;0.73;;;26.90;74.60;;;;;;5017540;28;20089;-24
2022/08/06 07:36:40;;;;;;;2.65;0.90;;;27.00;74.70;;;;;;5033288;28;20022;-24
2022/08/06 07:39:13;;;;;;;2.95;1.10;;;27.00;74.60;;;;;;5033033;28;20033;-24
2022/08/06 07:41:41;;;;;;;1.05;0.70;;;27.10;74.60;;;;;;5033155;28;20029;-24
2022/08/06 07:44:13;;;;;;;0.85;0.52;;;27.10;74.50;;;;;;4999070;28;20394;-24
2022/08/06 07:46:43;;;;;;;1.67;0.70;;;27.10;74.40;;;;;;5033317;28;20104;-24
2022/08/06 07:49:13;;;;;;;1.85;0.70;;;27.10;74.40;;;;;;5033363;28;20060;-24
2022/08/06 07:51:43;;;;;;;1.15;0.60;;;27.10;74.40;;;;;;5033336;28;20458;-24
2022/08/06 07:54:13;;;;;;;1.20;0.60;;;27.20;74.50;;;;;;5032624;28;20478;-24
2022/08/06 07:56:42;;;;;;;1.58;0.73;;;27.20;74.40;;;;;;5033088;28;20029;-25
2022/08/06 07:59:09;;;;;;;1.70;0.90;;;27.20;74.30;;;;;;5032744;28;20025;-24
2022/08/06 08:01:40;;;;;;;1.48;0.65;;;27.30;74.30;;;;;;5033124;28;20022;-24
2022/08/06 08:07:00;;;;;;;2.10;0.70;;;27.30;74.30;;;;;;5033357;28;20078;-24
2022/08/06 08:09:27;;;;;;;7.50;1.10;;;27.30;74.20;;;;;;5029399;28;20025;-25
2022/08/06 08:11:55;;;;;;;5.93;1.10;;;27.30;72.90;;;;;;5037897;28;20116;-25
2022/08/06 08:14:22;;;;;;;5.90;0.82;;;26.70;73.10;;;;;;5024251;28;20042;-25
2022/08/06 08:16:51;;;;;;;5.70;1.40;;;26.40;74.40;;;;;;5027899;28;20052;-24
2022/08/06 08:19:27;;;;;;;4.53;0.90;;;26.50;74.60;;;;;;5032108;28;20171;-24
2022/08/06 08:21:56;;;;;;;5.28;0.90;;;26.60;74.30;;;;;;5032352;28;20107;-24
2022/08/06 08:27:44;;;;;;;3.65;0.77;;;26.90;73.80;;;;;;5020800;28;20497;-25
2022/08/06 08:30:10;;;;;;;5.53;1.00;;;27.10;73.70;;;;;;5039824;28;20013;-24
2022/08/06 08:32:36;;;;;;;4.65;0.90;;;27.10;73.40;;;;;;5050221;28;20036;-24
2022/08/06 08:35:02;;;;;;;3.40;0.77;;;27.20;73.50;;;;;;5032120;28;20109;-25
2022/08/06 08:37:28;;;;;;;2.83;0.80;;;27.30;73.40;;;;;;5031828;28;20061;-25
2022/08/06 08:39:53;;;;;;;4.45;0.95;;;27.30;73.50;;;;;;5031991;28;20040;-25
2022/08/06 08:42:29;;;;;;;3.78;0.90;;;27.30;73.30;;;;;;5014534;28;20029;-24
2022/08/06 08:44:56;;;;;;;2.53;0.80;;;27.30;73.40;;;;;;5015377;28;20030;-24
2022/08/06 08:47:22;;;;;;;1.80;0.73;;;27.30;73.40;;;;;;5032116;28;20033;-24
2022/08/06 08:49:54;;;;;;;3.38;0.90;;;27.40;73.40;;;;;;5032194;28;20025;-24
2022/08/06 08:52:27;;;;;;;2.75;1.00;;;27.40;73.40;;;;;;5032346;28;20033;-25
2022/08/06 08:54:58;;;;;;;3.60;0.77;;;27.50;73.50;;;;;;5032153;28;20029;-25
2022/08/06 08:57:26;;;;;;;3.83;0.80;;;27.50;73.60;;;;;;5031633;28;20549;-25
2022/08/06 08:59:52;;;;;;;5.25;0.90;;;27.40;73.50;;;;;;5032362;28;20447;-25
2022/08/06 09:02:18;;;;;;;3.00;0.60;;;27.40;73.70;;;;;;5014494;28;20112;-24
2022/08/06 09:04:44;;;;;;;4.07;0.90;;;27.40;73.70;;;;;;5014269;28;20060;-25
2022/08/06 09:07:10;;;;;;;4.90;1.05;;;27.40;73.80;;;;;;5034012;28;20042;-25
2022/08/06 09:09:38;;;;;;;1.80;0.80;;;27.10;71.30;;;;;;5018333;28;20022;-25
2022/08/06 09:12:04;;;;;;;2.88;0.90;;;26.80;72.80;;;;;;5035831;28;20091;-24
2022/08/06 09:14:30;;;;;;;3.55;0.82;;;26.80;73.10;;;;;;5035963;28;20033;-25
2022/08/06 09:16:58;;;;;;;2.83;0.90;;;26.90;73.10;;;;;;5036000;28;20095;-26
2022/08/06 09:19:24;;;;;;;1.10;0.63;;;26.90;72.90;;;;;;5035894;28;20029;-24
2022/08/06 09:21:51;;;;;;;1.67;0.82;;;27.00;72.70;;;;;;5018351;28;20406;-25
2022/08/06 09:24:16;;;;;;;2.33;0.70;;;27.10;72.60;;;;;;5035502;28;20467;-25
2022/08/06 09:27:05;;;;;;;2.60;0.73;;;27.20;72.50;;;;;;5036362;28;20037;-25
2022/08/06 09:29:32;;;;;;;2.28;0.63;;;27.20;72.40;;;;;;5035822;28;20022;-25
2022/08/06 09:31:59;;;;;;;2.08;0.60;;;27.20;72.40;;;;;;5035468;28;20029;-25
2022/08/06 09:34:36;;;;;;;3.00;0.70;;;27.30;72.50;;;;;;5035516;28;20390;-25
2022/08/06 09:37:02;;;;;;;1.58;0.70;;;27.30;72.50;;;;;;5035136;28;20030;-24
2022/08/06 09:39:41;;;;;;;3.53;0.77;;;27.30;72.50;;;;;;5017701;28;20025;-24
2022/08/06 09:42:07;;;;;;;1.65;0.70;;;27.30;72.50;;;;;;5035287;28;20076;-24
2022/08/06 09:44:33;;;;;;;1.48;0.65;;;27.30;72.70;;;;;;5035161;28;20022;-25
2022/08/06 09:47:00;;;;;;;3.42;1.00;;;27.40;72.80;;;;;;5035125;28;20025;-25
2022/08/06 09:49:27;;;;;;;1.80;0.68;;;27.40;72.80;;;;;;5035388;28;20104;-24
2022/08/06 09:52:16;;;;;;;2.22;0.80;;;27.40;72.80;;;;;;5035357;28;20036;-24
2022/08/06 09:54:42;;;;;;;1.48;0.52;;;27.40;72.90;;;;;;5035577;28;20025;-25
2022/08/06 09:57:07;;;;;;;2.35;0.70;;;27.30;72.90;;;;;;5034734;28;20364;-24
2022/08/06 09:59:47;;;;;;;1.92;0.60;;;27.30;73.10;;;;;;5035136;28;20495;-25
2022/08/06 10:02:17;;;;;;;1.42;0.57;;;27.30;73.20;;;;;;5017383;28;20483;-25
2022/08/06 10:04:44;;;;;;;1.95;0.68;;;27.40;73.30;;;;;;5035428;28;20025;-24
2022/08/06 10:07:10;;;;;;;1.83;0.60;;;27.40;73.30;;;;;;5035462;28;20041;-24
2022/08/06 10:09:39;;;;;;;1.13;0.60;;;27.40;73.30;;;;;;5034975;28;20025;-24
2022/08/06 10:12:19;;;;;;;1.90;0.70;;;27.40;73.30;;;;;;5034995;28;20026;-24
2022/08/06 10:14:45;;;;;;;1.35;0.60;;;27.50;73.30;;;;;;5016863;28;20030;-24
2022/08/06 10:17:18;;;;;;;2.22;0.50;;;27.40;73.30;;;;;;5034005;28;20076;-25
2022/08/06 10:19:47;;;;;;;2.10;0.60;;;27.50;73.40;;;;;;5035054;28;20049;-25
2022/08/06 10:22:15;;;;;;;0.75;0.43;;;27.50;73.40;;;;;;5034699;28;20471;-24
2022/08/06 10:24:53;;;;;;;1.17;0.57;;;27.50;73.40;;;;;;5035120;28;20457;-24
2022/08/06 10:27:22;;;;;;;1.05;0.60;;;27.50;73.50;;;;;;5034924;28;20475;-24
2022/08/06 10:29:54;;;;;;;3.25;0.73;;;27.50;73.50;;;;;;5034578;28;20540;-24
2022/08/06 10:32:30;;;;;;;2.38;0.73;;;27.50;73.50;;;;;;5035027;28;20026;-25
2022/08/06 10:34:57;;;;;;;1.42;0.60;;;27.50;73.70;;;;;;5034575;28;20540;-24
2022/08/06 10:37:23;;;;;;;2.95;0.60;;;27.50;73.70;;;;;;5034135;28;20018;-25
2022/08/06 10:39:54;;;;;;;1.42;0.60;;;27.50;73.70;;;;;;5039158;28;20022;-24
2022/08/06 10:42:21;;;;;;;4.00;0.80;;;27.40;73.70;;;;;;5040524;28;20028;-25
2022/08/06 10:44:48;;;;;;;3.17;0.90;;;27.30;71.00;;;;;;5035532;28;20056;-25
2022/08/06 10:47:15;;;;;;;5.13;1.20;;;27.00;72.20;;;;;;5034337;28;20037;-25
2022/08/06 10:49:41;;;;;;;3.33;0.90;;;26.90;72.90;;;;;;5034766;28;20369;-24
2022/08/06 10:52:08;;;;;;;1.75;0.85;;;26.90;72.90;;;;;;5034170;28;20390;-24
2022/08/06 10:54:36;;;;;;;1.48;0.63;;;27.00;72.90;;;;;;5034183;28;20037;-25
2022/08/06 10:57:02;;;;;;;1.92;0.73;;;27.00;72.70;;;;;;5032179;28;20029;-24
2022/08/06 10:59:28;;;;;;;1.25;0.70;;;27.20;72.60;;;;;;5042317;28;20028;-25
2022/08/06 11:02:18;;;;;;;3.40;0.77;;;27.20;72.50;;;;;;5054084;28;20100;-25
2022/08/06 11:05:07;;;;;;;1.48;0.50;;;27.30;72.50;;;;;;5040022;28;20032;-24
2022/08/06 11:07:59;;;;;;;1.77;0.70;;;27.30;72.50;;;;;;5033159;28;20040;-25
2022/08/06 11:10:43;;;;;;;2.95;0.70;;;27.40;72.60;;;;;;5033525;28;20021;-24
2022/08/06 11:13:23;;;;;;;1.63;0.70;;;27.40;72.60;;;;;;5033733;28;20030;-24
2022/08/06 11:15:50;;;;;;;1.48;0.82;;;27.50;72.70;;;;;;5028679;28;20121;-25
2022/08/06 11:18:16;;;;;;;1.55;0.60;;;27.50;72.70;;;;;;5013658;28;20424;-25
2022/08/06 11:20:43;;;;;;;1.73;0.60;;;27.50;72.70;;;;;;4996359;28;20029;-25
2022/08/06 11:23:12;;;;;;;1.80;0.70;;;27.60;72.80;;;;;;5013785;28;20118;-25
2022/08/06 11:25:45;;;;;;;2.00;0.80;;;27.50;72.60;;;;;;5013564;28;20478;-25
2022/08/06 11:28:16;;;;;;;1.10;0.60;;;27.60;72.60;;;;;;5028335;28;20033;-25
2022/08/06 11:30:43;;;;;;;3.20;0.80;;;27.60;72.80;;;;;;5032551;28;20417;-25
2022/08/06 11:33:10;;;;;;;1.73;0.70;;;27.60;72.80;;;;;;5033031;28;20021;-25
2022/08/06 11:35:36;;;;;;;0.85;0.50;;;27.60;72.80;;;;;;5015044;28;20026;-25
2022/08/06 11:38:07;;;;;;;2.05;0.80;;;27.70;72.90;;;;;;5032909;28;20025;-24
2022/08/06 11:41:00;;;;;;;1.48;0.57;;;27.70;72.90;;;;;;5033062;28;20105;-24
2022/08/06 11:43:47;;;;;;;0.98;0.50;;;27.70;72.90;;;;;;5032830;28;20023;-24
2022/08/06 11:46:37;;;;;;;2.75;0.68;;;27.70;72.90;;;;;;5033559;28;20041;-24
2022/08/06 11:49:03;;;;;;;1.85;0.80;;;27.80;72.90;;;;;;5032904;28;20386;-25
2022/08/06 11:51:53;;;;;;;1.58;0.73;;;27.80;72.80;;;;;;5032940;28;20021;-24
2022/08/06 11:54:24;;;;;;;1.30;0.57;;;27.90;72.90;;;;;;5013081;28;20022;-24
2022/08/06 11:57:06;;;;;;;2.55;0.70;;;27.90;72.80;;;;;;5012951;28;20026;-24
2022/08/06 12:00:07;;;;;;;1.05;0.50;;;27.90;72.80;;;;;;5012951;28;20044;-24
2022/08/06 12:02:46;;;;;;;1.02;0.52;;;28.00;72.80;;;;;;5011482;28;20112;-24
2022/08/06 12:05:14;;;;;;;0.75;0.52;;;27.90;72.70;;;;;;5024802;28;20075;-25
2022/08/06 12:07:49;;;;;;;1.77;0.55;;;27.90;72.80;;;;;;5032274;28;20083;-25
2022/08/06 12:10:15;;;;;;;1.23;0.65;;;28.00;72.80;;;;;;5032808;28;20028;-25
2022/08/06 12:12:45;;;;;;;2.15;0.70;;;28.00;72.80;;;;;;5032705;28;20433;-24
2022/08/06 12:15:19;;;;;;;0.98;0.50;;;27.90;72.80;;;;;;5032606;28;20060;-25
2022/08/06 12:17:54;;;;;;;1.05;0.50;;;27.90;72.90;;;;;;5033344;28;20057;-25
2022/08/06 12:20:39;;;;;;;0.93;0.57;;;27.90;73.00;;;;;;5032669;28;20017;-24
2022/08/06 12:23:07;;;;;;;0.80;0.50;;;27.90;73.00;;;;;;5032033;28;20017;-25
2022/08/06 12:25:38;;;;;;;1.48;0.63;;;27.90;73.80;;;;;;5032921;28;20410;-24
2022/08/06 12:28:07;;;;;;;0.70;0.40;;;28.00;73.00;;;;;;5014444;28;20036;-24
2022/08/06 12:30:43;;;;;;;0.90;0.50;;;28.00;73.00;;;;;;5032494;28;20041;-24
2022/08/06 12:33:09;;;;;;;1.23;0.60;;;28.00;73.00;;;;;;5015070;28;20025;-24
2022/08/06 12:35:58;;;;;;;0.80;0.50;;;27.90;73.00;;;;;;5031830;28;20033;-24
2022/08/06 12:38:27;;;;;;;2.38;0.60;;;28.00;73.10;;;;;;5032087;28;20028;-24
2022/08/06 12:40:57;;;;;;;0.70;0.30;;;28.00;73.10;;;;;;5032140;28;20032;-24
2022/08/06 12:43:25;;;;;;;1.55;0.57;;;28.00;73.10;;;;;;5032115;28;20033;-25
2022/08/06 12:46:03;;;;;;;0.88;0.52;;;28.00;73.10;;;;;;5031760;28;20034;-25
2022/08/06 12:48:30;;;;;;;0.80;0.50;;;28.00;73.00;;;;;;4997734;28;20025;-24
2022/08/06 12:51:13;;;;;;;1.25;0.40;;;28.00;73.00;;;;;;5032223;28;20026;-24
2022/08/06 12:53:50;;;;;;;0.70;0.22;;;28.00;73.00;;;;;;5027670;28;20025;-24
2022/08/06 12:56:22;;;;;;;0.85;0.50;;;28.00;73.00;;;;;;5031690;28;20026;-24
2022/08/06 12:58:49;;;;;;;2.53;0.50;;;28.10;73.10;;;;;;5032128;28;20022;-24
2022/08/06 13:01:18;;;;;;;1.00;0.47;;;28.00;73.00;;;;;;5032198;28;20017;-24
2022/08/06 13:03:46;;;;;;;0.70;0.40;;;28.10;73.00;;;;;;5032195;28;20114;-24
2022/08/06 13:06:14;;;;;;;0.85;0.43;;;28.10;73.00;;;;;;5032169;28;20037;-25
2022/08/06 13:08:41;;;;;;;0.80;0.50;;;28.10;73.00;;;;;;5032397;28;20433;-25
2022/08/06 13:11:07;;;;;;;0.80;0.47;;;28.10;73.00;;;;;;5014561;28;20056;-25
2022/08/06 13:13:37;;;;;;;0.70;0.55;;;28.10;72.90;;;;;;5032752;28;20365;-24